Nordic Philip — 5BZH2 — position and weather

sailwx.info

Track history (hours):
 
Tides and Currents Weather Stations Pressure Air Temp Water Temp Dewpoint Dewpoint Depression Visibility Wind Speed Wind Dir Waves Ship Positions

Nordic Philip

Last reported at 2015-Mar-29 12:05 UTC. Time now 2015-Mar-30 05:52 UTC.
Position N 59°36' E 023°11'.

Length 152 m; draft 8.5 m.

Type: Ship (hazmat cat A). MMSI: 212018000.

Date/timePositionNaut miles runAvg speedWind from/ knotsBaromVisibWave heightAir tempDewpointWater temp
2015-Mar-29 12:05N 59°36' E 023°11'816.2
2015-Mar-29 11:34N 59°38' E 023°27'1716.6
2015-Mar-29 10:33N 59°43' E 023°58'6716.7
2015-Mar-29 06:32N 59°58' E 026°08'1616.3
2015-Mar-29 05:34N 60°01' E 026°40'1615.6
2015-Mar-29 04:31N 60°02' E 027°12'9013.0
2015-Mar-28 21:34N 59°53' E 030°12'0 0.0
2015-Mar-28 08:32N 59°52' E 030°12'0 0.0
2015-Mar-28 07:32N 59°52' E 030°12'1 0.0
2015-Mar-27 16:33N 59°53' E 030°12'1 0.7
2015-Mar-27 15:06N 59°54' E 030°14'0 0.0
2015-Mar-27 09:27N 59°54' E 030°14'0 0.0
2015-Mar-27 04:18N 59°54' E 030°14'0 0.0
2015-Mar-27 03:30N 59°54' E 030°14'2 1.9
2015-Mar-27 02:34N 59°53' E 030°10'9110.9
2015-Mar-26 18:14N 59°60' E 027°09'1212.1
2015-Mar-26 17:17N 59°59' E 026°46'912.6
2015-Mar-26 16:34N 59°58' E 026°28'1312.6
2015-Mar-26 15:34N 59°55' E 026°03'3912.8
2015-Mar-26 12:31N 59°46' E 024°48'1212.6
2015-Mar-26 11:34N 59°43' E 024°24'3012.7
2015-Mar-26 09:13N 59°33' E 023°29'33614.1
2015-Mar-25 09:20N 55°45' E 015°48'1214.7
2015-Mar-25 08:32N 55°40' E 015°29'1514.9
2015-Mar-25 07:33N 55°33' E 015°07'1515.2
2015-Mar-25 06:33N 55°25' E 014°43'1515.0
2015-Mar-25 05:34N 55°15' E 014°25'1515.1
2015-Mar-25 04:33N 55°03' E 014°09'1514.8
2015-Mar-25 03:33N 54°57' E 013°45'1515.0
2015-Mar-25 02:33N 54°52' E 013°21'1514.8
2015-Mar-25 01:33N 54°47' E 012°57'1515.0
2015-Mar-25 00:33N 54°41' E 012°33'1414.4
2015-Mar-24 23:33N 54°30' E 012°16'1313.1
2015-Mar-24 22:33N 54°24' E 011°56'1414.3
2015-Mar-24 21:34N 54°28' E 011°32'1514.7
2015-Mar-24 20:33N 54°35' E 011°10'1514.7
2015-Mar-24 19:33N 54°34' E 010°44'1414.3
2015-Mar-24 18:33N 54°30' E 010°21'1110.6
2015-Mar-24 17:33N 54°22' E 010°09'19 6.1
2015-Mar-24 14:27N 54°16' E 009°38'7 7.8
2015-Mar-24 13:34N 54°11' E 009°30'8 7.6
2015-Mar-24 12:33N 54°06' E 009°20'9 8.6
2015-Mar-24 11:33N 53°58' E 009°15'6 5.8
2015-Mar-24 10:33N 53°54' E 009°09'1 1.3
2015-Mar-24 09:33N 53°53' E 009°11'0 0.5
2015-Mar-24 08:33N 53°53' E 009°11'1413.8
2015-Mar-24 07:33N 53°43' E 009°28'1413.6
2015-Mar-24 06:33N 53°34' E 009°44'7 6.4
2015-Mar-24 05:32N 53°32' E 009°55'0 0.0
2015-Mar-24 04:32N 53°32' E 009°55'0 0.0
2015-Mar-24 03:31N 53°32' E 009°55'0 0.0
2015-Mar-24 02:31N 53°32' E 009°55'0 0.0
2015-Mar-24 01:31N 53°32' E 009°55'0 0.0
2015-Mar-24 00:31N 53°32' E 009°55'0 0.0
2015-Mar-23 23:31N 53°32' E 009°55'0 0.2
2015-Mar-23 22:33N 53°32' E 009°55'1 1.4
2015-Mar-23 21:32N 53°32' E 009°57'0 0.0
2015-Mar-23 20:32N 53°32' E 009°57'0 0.0
2015-Mar-23 19:32N 53°32' E 009°57'0 0.0
2015-Mar-23 18:29N 53°32' E 009°57'0 0.0
2015-Mar-23 17:26N 53°32' E 009°57'0 0.0
2015-Mar-23 16:32N 53°32' E 009°57'0 0.0
2015-Mar-23 15:32N 53°32' E 009°57'0 0.0
2015-Mar-23 14:32N 53°32' E 009°57'0 0.0
2015-Mar-23 13:33N 53°32' E 009°57'1 1.3
2015-Mar-23 12:33N 53°32' E 009°55'0 0.0
2015-Mar-23 11:30N 53°32' E 009°55'0 0.0
2015-Mar-23 10:33N 53°32' E 009°55'0 0.0
2015-Mar-23 09:33N 53°32' E 009°55'0 0.0
2015-Mar-23 08:33N 53°32' E 009°55'0 0.0
2015-Mar-23 07:30N 53°32' E 009°55'0 0.0
2015-Mar-23 06:33N 53°32' E 009°55'0 0.0
2015-Mar-23 05:33N 53°32' E 009°55'0 0.0
2015-Mar-23 04:33N 53°32' E 009°55'0 0.0
2015-Mar-23 03:33N 53°32' E 009°55'0 0.0
2015-Mar-23 02:33N 53°32' E 009°55'0 0.0
2015-Mar-23 01:30N 53°32' E 009°55'0 0.0
2015-Mar-23 00:33N 53°32' E 009°55'0 0.0
2015-Mar-22 23:33N 53°32' E 009°55'0 0.0
2015-Mar-22 22:33N 53°32' E 009°55'0 0.1
2015-Mar-22 21:33N 53°32' E 009°55'2 2.4
2015-Mar-22 20:32N 53°30' E 009°56'0 0.0
2015-Mar-22 19:29N 53°30' E 009°56'0 0.0
2015-Mar-22 18:29N 53°30' E 009°56'0 0.0
2015-Mar-22 17:32N 53°30' E 009°56'0 0.0
2015-Mar-22 16:32N 53°30' E 009°56'0 0.0
2015-Mar-22 15:32N 53°30' E 009°56'0 0.0
2015-Mar-22 14:29N 53°30' E 009°56'0 0.0
2015-Mar-22 13:29N 53°30' E 009°56'0 0.0
2015-Mar-22 12:29N 53°30' E 009°56'0 0.0
2015-Mar-22 11:29N 53°30' E 009°56'0 0.0
2015-Mar-22 10:32N 53°30' E 009°56'0 0.0
2015-Mar-22 09:32N 53°30' E 009°56'0 0.0
2015-Mar-22 08:32N 53°30' E 009°56'0 0.1
2015-Mar-22 07:33N 53°30' E 009°56'7 6.8
2015-Mar-22 06:33N 53°34' E 009°46'1212.2
2015-Mar-22 05:34N 53°41' E 009°30'1413.8
2015-Mar-22 04:34N 53°52' E 009°16'5 4.7
2015-Mar-22 03:33N 53°54' E 009°09'1 1.4
2015-Mar-22 02:33N 53°55' E 009°10'0 0.0
2015-Mar-22 01:33N 53°55' E 009°11'3 2.7
2015-Mar-22 00:34N 53°57' E 009°13'6 6.4
2015-Mar-21 23:33N 54°02' E 009°18'5 4.4
2015-Mar-21 22:29N 54°07' E 009°20'7 7.7
2015-Mar-21 21:33N 54°11' E 009°30'8 7.8
2015-Mar-21 20:33N 54°17' E 009°39'4 3.9
2015-Mar-21 19:33N 54°20' E 009°43'5 5.0
2015-Mar-21 18:34N 54°22' E 009°51'7 7.3
2015-Mar-21 17:34N 54°22' E 010°04'3 2.8
2015-Mar-21 16:33N 54°22' E 010°09'1 0.9
2015-Mar-21 15:34N 54°22' E 010°10'1 0.5
2015-Mar-21 14:33N 54°22' E 010°10'2 2.1
2015-Mar-21 13:34N 54°24' E 010°12'1212.0
2015-Mar-21 12:33N 54°32' E 010°27'1514.4
2015-Mar-21 11:32N 54°35' E 010°52'1414.5
2015-Mar-21 10:33N 54°35' E 011°17'1515.1
2015-Mar-21 09:34N 54°28' E 011°40'1414.4
2015-Mar-21 08:33N 54°26' E 012°04'8914.4
2015-Mar-21 02:24N 55°12' E 014°15'1315.2
2015-Mar-21 01:31N 55°23' E 014°30'1415.1
2015-Mar-21 00:33N 55°31' E 014°51'1615.0
2015-Mar-20 23:29N 55°39' E 015°16'34115.3
2015-Mar-20 01:10N 59°33' E 022°58'1016.1
2015-Mar-20 00:33N 59°36' E 023°16'1616.0
2015-Mar-19 23:33N 59°41' E 023°46'1615.8
2015-Mar-19 22:31N 59°46' E 024°17'4715.3
2015-Mar-19 19:29N 59°56' E 025°48'1415.1
2015-Mar-19 18:34N 60°04' E 026°10'1414.4
2015-Mar-19 17:34N 60°16' E 026°28'1212.3
2015-Mar-19 16:34N 60°23' E 026°47'4 4.2
2015-Mar-19 15:33N 60°25' E 026°55'0 0.0
2015-Mar-19 14:32N 60°25' E 026°55'0 0.0
2015-Mar-19 13:32N 60°25' E 026°55'0 0.0
2015-Mar-19 12:32N 60°25' E 026°55'  
Track history (hours):
 
Tides and Currents Weather Stations Pressure Air Temp Water Temp Dewpoint Dewpoint Depression Visibility Wind Speed Wind Dir Waves Ship Positions

Nordic Philip

Last reported at 2015-Mar-29 12:05 UTC. Time now 2015-Mar-30 05:52 UTC.
Position N 59°36' E 023°11'.

Length 152 m; draft 8.5 m.

Type: Ship (hazmat cat A). MMSI: 212018000.

Date/timePositionNaut miles runAvg speedWind from/ knotsBaromVisibWave heightAir tempDewpointWater temp
2015-Mar-29 12:05N 59°36' E 023°11'816.2
2015-Mar-29 11:34N 59°38' E 023°27'1716.6
2015-Mar-29 10:33N 59°43' E 023°58'6716.7
2015-Mar-29 06:32N 59°58' E 026°08'1616.3
2015-Mar-29 05:34N 60°01' E 026°40'1615.6
2015-Mar-29 04:31N 60°02' E 027°12'9013.0
2015-Mar-28 21:34N 59°53' E 030°12'0 0.0
2015-Mar-28 08:32N 59°52' E 030°12'0 0.0
2015-Mar-28 07:32N 59°52' E 030°12'1 0.0
2015-Mar-27 16:33N 59°53' E 030°12'1 0.7
2015-Mar-27 15:06N 59°54' E 030°14'0 0.0
2015-Mar-27 09:27N 59°54' E 030°14'0 0.0
2015-Mar-27 04:18N 59°54' E 030°14'0 0.0
2015-Mar-27 03:30N 59°54' E 030°14'2 1.9
2015-Mar-27 02:34N 59°53' E 030°10'9110.9
2015-Mar-26 18:14N 59°60' E 027°09'1212.1
2015-Mar-26 17:17N 59°59' E 026°46'912.6
2015-Mar-26 16:34N 59°58' E 026°28'1312.6
2015-Mar-26 15:34N 59°55' E 026°03'3912.8
2015-Mar-26 12:31N 59°46' E 024°48'1212.6
2015-Mar-26 11:34N 59°43' E 024°24'3012.7
2015-Mar-26 09:13N 59°33' E 023°29'33614.1
2015-Mar-25 09:20N 55°45' E 015°48'1214.7
2015-Mar-25 08:32N 55°40' E 015°29'1514.9
2015-Mar-25 07:33N 55°33' E 015°07'1515.2
2015-Mar-25 06:33N 55°25' E 014°43'1515.0
2015-Mar-25 05:34N 55°15' E 014°25'1515.1
2015-Mar-25 04:33N 55°03' E 014°09'1514.8
2015-Mar-25 03:33N 54°57' E 013°45'1515.0
2015-Mar-25 02:33N 54°52' E 013°21'1514.8
2015-Mar-25 01:33N 54°47' E 012°57'1515.0
2015-Mar-25 00:33N 54°41' E 012°33'1414.4
2015-Mar-24 23:33N 54°30' E 012°16'1313.1
2015-Mar-24 22:33N 54°24' E 011°56'1414.3
2015-Mar-24 21:34N 54°28' E 011°32'1514.7
2015-Mar-24 20:33N 54°35' E 011°10'1514.7
2015-Mar-24 19:33N 54°34' E 010°44'1414.3
2015-Mar-24 18:33N 54°30' E 010°21'1110.6
2015-Mar-24 17:33N 54°22' E 010°09'19 6.1
2015-Mar-24 14:27N 54°16' E 009°38'7 7.8
2015-Mar-24 13:34N 54°11' E 009°30'8 7.6
2015-Mar-24 12:33N 54°06' E 009°20'9 8.6
2015-Mar-24 11:33N 53°58' E 009°15'6 5.8
2015-Mar-24 10:33N 53°54' E 009°09'1 1.3
2015-Mar-24 09:33N 53°53' E 009°11'0 0.5
2015-Mar-24 08:33N 53°53' E 009°11'1413.8
2015-Mar-24 07:33N 53°43' E 009°28'1413.6
2015-Mar-24 06:33N 53°34' E 009°44'7 6.4
2015-Mar-24 05:32N 53°32' E 009°55'0 0.0
2015-Mar-24 04:32N 53°32' E 009°55'0 0.0
2015-Mar-24 03:31N 53°32' E 009°55'0 0.0
2015-Mar-24 02:31N 53°32' E 009°55'0 0.0
2015-Mar-24 01:31N 53°32' E 009°55'0 0.0
2015-Mar-24 00:31N 53°32' E 009°55'0 0.0
2015-Mar-23 23:31N 53°32' E 009°55'0 0.2
2015-Mar-23 22:33N 53°32' E 009°55'1 1.4
2015-Mar-23 21:32N 53°32' E 009°57'0 0.0
2015-Mar-23 20:32N 53°32' E 009°57'0 0.0
2015-Mar-23 19:32N 53°32' E 009°57'0 0.0
2015-Mar-23 18:29N 53°32' E 009°57'0 0.0
2015-Mar-23 17:26N 53°32' E 009°57'0 0.0
2015-Mar-23 16:32N 53°32' E 009°57'0 0.0
2015-Mar-23 15:32N 53°32' E 009°57'0 0.0
2015-Mar-23 14:32N 53°32' E 009°57'0 0.0
2015-Mar-23 13:33N 53°32' E 009°57'1 1.3
2015-Mar-23 12:33N 53°32' E 009°55'0 0.0
2015-Mar-23 11:30N 53°32' E 009°55'0 0.0
2015-Mar-23 10:33N 53°32' E 009°55'0 0.0
2015-Mar-23 09:33N 53°32' E 009°55'0 0.0
2015-Mar-23 08:33N 53°32' E 009°55'0 0.0
2015-Mar-23 07:30N 53°32' E 009°55'0 0.0
2015-Mar-23 06:33N 53°32' E 009°55'0 0.0
2015-Mar-23 05:33N 53°32' E 009°55'0 0.0
2015-Mar-23 04:33N 53°32' E 009°55'0 0.0
2015-Mar-23 03:33N 53°32' E 009°55'0 0.0
2015-Mar-23 02:33N 53°32' E 009°55'0 0.0
2015-Mar-23 01:30N 53°32' E 009°55'0 0.0
2015-Mar-23 00:33N 53°32' E 009°55'0 0.0
2015-Mar-22 23:33N 53°32' E 009°55'0 0.0
2015-Mar-22 22:33N 53°32' E 009°55'0 0.1
2015-Mar-22 21:33N 53°32' E 009°55'2 2.4
2015-Mar-22 20:32N 53°30' E 009°56'0 0.0
2015-Mar-22 19:29N 53°30' E 009°56'0 0.0
2015-Mar-22 18:29N 53°30' E 009°56'0 0.0
2015-Mar-22 17:32N 53°30' E 009°56'0 0.0
2015-Mar-22 16:32N 53°30' E 009°56'0 0.0
2015-Mar-22 15:32N 53°30' E 009°56'0 0.0
2015-Mar-22 14:29N 53°30' E 009°56'0 0.0
2015-Mar-22 13:29N 53°30' E 009°56'0 0.0
2015-Mar-22 12:29N 53°30' E 009°56'0 0.0
2015-Mar-22 11:29N 53°30' E 009°56'0 0.0
2015-Mar-22 10:32N 53°30' E 009°56'0 0.0
2015-Mar-22 09:32N 53°30' E 009°56'0 0.0
2015-Mar-22 08:32N 53°30' E 009°56'0 0.1
2015-Mar-22 07:33N 53°30' E 009°56'7 6.8
2015-Mar-22 06:33N 53°34' E 009°46'1212.2
2015-Mar-22 05:34N 53°41' E 009°30'1413.8
2015-Mar-22 04:34N 53°52' E 009°16'5 4.7
2015-Mar-22 03:33N 53°54' E 009°09'1 1.4
2015-Mar-22 02:33N 53°55' E 009°10'0 0.0
2015-Mar-22 01:33N 53°55' E 009°11'3 2.7
2015-Mar-22 00:34N 53°57' E 009°13'6 6.4
2015-Mar-21 23:33N 54°02' E 009°18'5 4.4
2015-Mar-21 22:29N 54°07' E 009°20'7 7.7
2015-Mar-21 21:33N 54°11' E 009°30'8 7.8
2015-Mar-21 20:33N 54°17' E 009°39'4 3.9
2015-Mar-21 19:33N 54°20' E 009°43'5 5.0
2015-Mar-21 18:34N 54°22' E 009°51'7 7.3
2015-Mar-21 17:34N 54°22' E 010°04'3 2.8
2015-Mar-21 16:33N 54°22' E 010°09'1 0.9
2015-Mar-21 15:34N 54°22' E 010°10'1 0.5
2015-Mar-21 14:33N 54°22' E 010°10'2 2.1
2015-Mar-21 13:34N 54°24' E 010°12'1212.0
2015-Mar-21 12:33N 54°32' E 010°27'1514.4
2015-Mar-21 11:32N 54°35' E 010°52'1414.5
2015-Mar-21 10:33N 54°35' E 011°17'1515.1
2015-Mar-21 09:34N 54°28' E 011°40'1414.4
2015-Mar-21 08:33N 54°26' E 012°04'8914.4
2015-Mar-21 02:24N 55°12' E 014°15'1315.2
2015-Mar-21 01:31N 55°23' E 014°30'1415.1
2015-Mar-21 00:33N 55°31' E 014°51'1615.0
2015-Mar-20 23:29N 55°39' E 015°16'34115.3
2015-Mar-20 01:10N 59°33' E 022°58'1016.1
2015-Mar-20 00:33N 59°36' E 023°16'1616.0
2015-Mar-19 23:33N 59°41' E 023°46'1615.8
2015-Mar-19 22:31N 59°46' E 024°17'4715.3
2015-Mar-19 19:29N 59°56' E 025°48'1415.1
2015-Mar-19 18:34N 60°04' E 026°10'1414.4
2015-Mar-19 17:34N 60°16' E 026°28'1212.3
2015-Mar-19 16:34N 60°23' E 026°47'4 4.2
2015-Mar-19 15:33N 60°25' E 026°55'0 0.0
2015-Mar-19 14:32N 60°25' E 026°55'0 0.0
2015-Mar-19 13:32N 60°25' E 026°55'0 0.0
2015-Mar-19 12:32N 60°25' E 026°55'  

Dump ship's entire track history